ADDS METAR Data INFO
IDs: Format: Raw Decoded Include TAF

Data at: 1109 UTC 17 Jul 2018

KHYA 171056Z 22013G19KT 6SM BR OVC006 24/22 A2991 RMK AO2 SLP128 T02390222
KHYA 170956Z 21010KT 6SM BR OVC006 23/22 A2991 RMK AO2 CIG 005V009 SLP129 T02330222
KHYA 170856Z AUTO 21009KT 7SM BKN006 23/22 A2991 RMK AO2 SLP128 T02330222 56011
KHYA 170837Z AUTO 21010KT 8SM FEW008 23/22 A2991 RMK AO2 T02330217
KHYA 170756Z AUTO 21007KT 10SM CLR 23/21 A2992 RMK AO2 SLP132 T02330211
KHYA 170656Z AUTO 20008KT 9SM CLR 23/22 A2992 RMK AO2 SLP134 T02280217
KHYA 170621Z AUTO 21007KT 8SM SCT006 23/22 A2993 RMK AO2 T02280222
KHYA 170556Z AUTO 21009KT 7SM BKN005 23/22 A2994 RMK AO2 SLP140 T02330222 10239 20233 56005
KHYA 170514Z AUTO 21007KT 7SM OVC005 23/22 A2994 RMK AO2 T02330222
KHYA 170456Z AUTO 21009KT 6SM BR OVC004 23/22 A2994 RMK AO2 SLP140 T02330222 402890194
KHYA 170356Z AUTO 21008KT 6SM BR OVC004 23/22 A2995 RMK AO2 SLP143 T02330222
KHYA 170335Z AUTO 20008KT 5SM BR OVC004 23/22 A2995 RMK AO2 T02330222
KHYA 170324Z AUTO 20010KT 6SM BR BKN005 23/22 A2995 RMK AO2 T02330222
KHYA 170307Z AUTO 20006KT 7SM FEW005 23/22 A2996 RMK AO2 T02330222
KHYA 170256Z AUTO 21007KT 8SM CLR 23/22 A2995 RMK AO2 SLP144 T02330222 50004
KHYA 170156Z 21009KT 6SM BR FEW006 23/22 A2996 RMK AO2 SLP146 T02330222
KHYA 170056Z 21010KT 6SM BR BKN006 23/22 A2995 RMK AO2 SLP142 T02330222
KHYA 170047Z 20007KT 6SM BR BKN006 23/22 A2995 RMK AO2 T02330222
KHYA 170030Z 20010KT 6SM BR FEW006 23/22 A2995 RMK AO2 T02330222
KHYA 162356Z 20007KT 7SM CLR 24/22 A2994 RMK AO2 SLP140 T02390222 10289 20239 56005
KHYA 162256Z 20007KT 8SM CLR 25/22 A2995 RMK AO2 SLP142 T02500222
KHYA 162156Z 20009KT 8SM CLR 26/23 A2995 RMK AO2 SLP143 T02610228
KHYA 162056Z 20007KT 9SM CLR 26/22 A2996 RMK AO2 SLP145 T02560222 56005
KHYA 161956Z 18007KT 10SM CLR 27/22 A2996 RMK AO2 SLP145 T02720222
KHYA 161856Z 21011G15KT 10SM CLR 28/22 A2997 RMK AO2 SLP148 T02830217
KHYA 161756Z 19008KT 10SM CLR 28/22 A2997 RMK AO2 SLP150 T02780217 10289 20239 58006
KHYA 161656Z 19007KT 9SM CLR 28/22 A2998 RMK AO2 SLP154 T02780217
KHYA 161556Z 18007KT 10SM FEW022 27/22 A2999 RMK AO2 SLP157 T02720222
KHYA 161456Z VRB05KT 10SM CLR 27/23 A2999 RMK AO2 SLP156 T02720228 53003
KHYA 161356Z 16004KT 9SM CLR 26/22 A2999 RMK AO2 SLP156 T02610222
KHYA 161256Z 18004KT 7SM CLR 25/22 A2998 RMK AO2 SLP154 T02500222
KHYA 161156Z 16004KT 7SM FEW008 24/22 A2998 RMK AO2 SLP154 T02440222 10244 20194 53007
KHYA 161148Z 14004KT 7SM FEW008 24/22 A2998 RMK AO2 T02390222
KHYA 161056Z 00000KT 5SM BR CLR 23/22 A2997 RMK AO2 SLP151 T02280217
KHYA 160956Z 00000KT 5SM BR CLR 19/19 A2997 RMK AO2 SLP149 T01940189
KHYA 160925Z AUTO 00000KT 5SM BR FEW003 19/19 A2996 RMK AO2 T01940189
KHYA 160916Z AUTO 00000KT 2SM BR FEW003 19/19 A2996 RMK AO2 T01940189
KHYA 160905Z AUTO 00000KT 1 1/2SM BR BKN003 19/19 A2996 RMK AO2 T01940189
KHYA 160856Z AUTO 00000KT 5SM BR BKN003 19/19 A2996 RMK AO2 SLP147 T01940189 55002
KHYA 160848Z AUTO 00000KT 2 1/2SM BR BKN003 20/19 A2996 RMK AO2 T02000194
KHYA 160833Z AUTO 00000KT 2 1/2SM BR FEW003 20/19 A2996 RMK AO2 T02000194
KHYA 160812Z AUTO 00000KT 4SM BR CLR 21/19 A2996 RMK AO2 T02060194
KHYA 160756Z AUTO 00000KT 2SM BR CLR 21/20 A2996 RMK AO2 SLP145 T02060200
KHYA 160710Z AUTO 23004KT 6SM BR FEW004 21/21 A2997 RMK AO2 T02110206
KHYA 160656Z AUTO 22005KT 6SM BR CLR 22/21 A2997 RMK AO2 SLP149 T02170206
KHYA 160556Z AUTO 19003KT 7SM FEW005 22/21 A2997 RMK AO2 SLP149 T02170206 10222 20211 58002
KHYA 160505Z AUTO 20005KT 7SM SCT006 22/21 A2997 RMK AO2 T02220211
KHYA 160456Z AUTO 21006KT 7SM BKN006 22/21 A2997 RMK AO2 SLP151 T02220211 402560183
KHYA 160453Z AUTO 21006KT 7SM BKN006 22/21 A2998 RMK AO2
KHYA 160432Z AUTO 21006KT 7SM SCT006 22/21 A2998 RMK AO2 T02220211
KHYA 160356Z AUTO 20006KT 7SM CLR 22/21 A2997 RMK AO2 SLP151 T02220211
KHYA 160256Z AUTO 19003KT 8SM FEW005 22/21 A2997 RMK AO2 SLP149 T02220211 50005
KHYA 160249Z AUTO 19004KT 8SM SCT005 22/21 A2997 RMK AO2 T02220211
KHYA 160213Z AUTO 20006KT 8SM OVC005 22/21 A2998 RMK AO2 T02220211
KHYA 160156Z 18005KT 8SM OVC004 22/21 A2997 RMK AO2 SLP151 T02220211
KHYA 160056Z 15005KT 5SM BR OVC004 21/20 A2996 RMK AO2 SLP146 T02110200
KHYA 152356Z 14004KT 8SM BKN006 21/20 A2995 RMK AO2 SLP144 T02110200 10256 20211 53004